createdAt,value
2023-01-22T00:01:21.242Z,0.60
2023-01-22T00:03:49.839Z,0.60
2023-01-22T00:06:17.894Z,0.60
2023-01-22T00:08:46.626Z,0.60
2023-01-22T00:11:16.261Z,0.60
2023-01-22T00:13:48.100Z,0.60
2023-01-22T00:16:16.840Z,0.70
2023-01-22T00:18:44.881Z,0.70
2023-01-22T00:21:13.356Z,0.70
2023-01-22T00:23:44.030Z,0.70
2023-01-22T00:26:14.205Z,0.70
2023-01-22T00:28:42.641Z,0.70
2023-01-22T00:31:12.914Z,0.70
2023-01-22T00:33:45.789Z,0.80
2023-01-22T00:36:15.195Z,0.80
2023-01-22T00:38:43.200Z,0.80
2023-01-22T00:41:11.404Z,0.80
2023-01-22T00:43:40.472Z,0.80
2023-01-22T00:46:08.933Z,0.80
2023-01-22T00:48:40.681Z,0.80
2023-01-22T00:51:09.112Z,0.80
2023-01-22T00:53:37.145Z,0.80
2023-01-22T00:56:07.365Z,0.80
2023-01-22T00:58:35.473Z,0.80
2023-01-22T01:01:03.969Z,0.80
2023-01-22T01:03:32.087Z,0.90
2023-01-22T01:06:03.712Z,0.90
2023-01-22T01:08:33.249Z,0.90
2023-01-22T01:11:02.282Z,0.90
2023-01-22T01:13:32.651Z,0.90
2023-01-22T01:16:01.427Z,0.90
2023-01-22T01:18:29.963Z,0.90
2023-01-22T01:20:58.447Z,0.90
2023-01-22T01:23:28.473Z,0.90
2023-01-22T01:25:56.714Z,0.90
2023-01-22T01:28:25.191Z,0.90
2023-01-22T01:30:55.980Z,0.90
2023-01-22T01:33:27.812Z,0.90
2023-01-22T01:36:00.051Z,0.90
2023-01-22T01:38:29.463Z,0.90
2023-01-22T01:40:57.600Z,0.90
2023-01-22T01:43:25.973Z,1.00
2023-01-22T01:45:54.448Z,1.00
2023-01-22T01:48:27.661Z,0.90
2023-01-22T01:50:58.464Z,0.90
2023-01-22T01:53:26.560Z,0.90
2023-01-22T01:55:57.460Z,0.90
2023-01-22T01:58:27.194Z,0.90
2023-01-22T02:00:57.062Z,0.90
2023-01-22T02:03:25.930Z,0.90
2023-01-22T02:05:56.719Z,0.90
2023-01-22T02:08:24.982Z,1.00
2023-01-22T02:10:56.171Z,1.00
2023-01-22T02:13:28.226Z,1.00
2023-01-22T02:15:57.615Z,1.00
2023-01-22T02:18:25.605Z,1.00
2023-01-22T02:20:56.950Z,1.00
2023-01-22T02:23:28.579Z,1.00
2023-01-22T02:25:59.219Z,1.00
2023-01-22T02:28:27.301Z,1.00
2023-01-22T02:30:58.165Z,1.00
2023-01-22T02:33:26.387Z,1.00
2023-01-22T02:35:57.235Z,1.00
2023-01-22T02:38:25.370Z,1.00
2023-01-22T02:40:53.369Z,1.00
2023-01-22T02:43:21.384Z,1.00
2023-01-22T02:45:51.526Z,1.00
2023-01-22T02:48:19.530Z,1.00
2023-01-22T02:50:47.520Z,1.00
2023-01-22T02:53:16.900Z,1.00
2023-01-22T02:55:50.568Z,1.00
2023-01-22T02:58:19.980Z,1.00
2023-01-22T03:00:48.070Z,1.10
2023-01-22T03:03:16.404Z,1.00
2023-01-22T03:05:45.257Z,1.10
2023-01-22T03:08:13.218Z,1.00
2023-01-22T03:10:42.612Z,1.00
2023-01-22T03:13:28.296Z,1.00
2023-01-22T03:16:17.045Z,1.00
2023-01-22T03:19:02.510Z,1.00
2023-01-22T03:21:30.532Z,1.00
2023-01-22T03:24:00.937Z,1.00
2023-01-22T03:26:31.579Z,1.00
2023-01-22T03:29:01.388Z,1.00
2023-01-22T03:31:29.581Z,1.00
2023-01-22T03:33:58.334Z,1.00
2023-01-22T03:36:26.313Z,1.00
2023-01-22T03:38:54.285Z,1.00
2023-01-22T03:41:22.260Z,0.90
2023-01-22T03:43:51.661Z,1.00
2023-01-22T03:46:20.214Z,1.00
2023-01-22T03:48:53.779Z,1.00
2023-01-22T03:51:21.973Z,1.00
2023-01-22T03:53:50.516Z,1.00
2023-01-22T03:56:20.098Z,1.00
2023-01-22T03:58:48.488Z,1.00
2023-01-22T04:01:19.276Z,1.00
2023-01-22T04:03:47.679Z,1.00
2023-01-22T04:06:15.713Z,1.00
2023-01-22T04:08:47.095Z,1.00
2023-01-22T04:11:15.059Z,1.00
2023-01-22T04:13:45.082Z,1.00
2023-01-22T04:16:15.295Z,1.00
2023-01-22T04:18:44.889Z,1.00
2023-01-22T04:21:14.199Z,1.00
2023-01-22T04:23:42.446Z,1.00
2023-01-22T04:26:14.740Z,1.00
2023-01-22T04:28:42.689Z,1.00
2023-01-22T04:31:10.779Z,1.00
2023-01-22T04:33:38.803Z,1.00
2023-01-22T04:36:09.539Z,0.90
2023-01-22T04:38:37.521Z,0.90
2023-01-22T04:41:05.528Z,0.80
2023-01-22T04:43:33.479Z,0.80
2023-01-22T04:46:03.562Z,0.80
2023-01-22T04:48:31.615Z,0.80
2023-01-22T04:50:59.631Z,0.80
2023-01-22T04:53:28.969Z,0.80
2023-01-22T04:55:56.953Z,0.80
2023-01-22T04:58:26.091Z,0.80
2023-01-22T05:00:56.091Z,0.80
2023-01-22T05:03:24.104Z,0.80
2023-01-22T05:05:52.064Z,0.80
2023-01-22T05:08:22.224Z,0.80
2023-01-22T05:10:54.506Z,0.80
2023-01-22T05:13:22.492Z,0.80
2023-01-22T05:15:50.483Z,0.80
2023-01-22T05:18:18.471Z,0.80
2023-01-22T05:20:46.435Z,0.80
2023-01-22T05:23:15.977Z,0.80
2023-01-22T05:25:48.259Z,0.80
2023-01-22T05:28:17.655Z,0.80
2023-01-22T05:30:47.683Z,0.80
2023-01-22T05:33:15.725Z,0.80
2023-01-22T05:35:43.683Z,0.80
2023-01-22T05:38:12.168Z,0.80
2023-01-22T05:40:40.170Z,0.80
2023-01-22T05:43:18.072Z,0.80
2023-01-22T05:45:47.647Z,0.80
2023-01-22T05:48:16.607Z,0.80
2023-01-22T05:50:44.572Z,0.80
2023-01-22T05:53:12.597Z,0.80
2023-01-22T05:55:40.558Z,0.80
2023-01-22T05:58:11.007Z,0.80
2023-01-22T06:00:39.039Z,0.80
2023-01-22T06:03:11.962Z,0.80
2023-01-22T06:05:39.991Z,0.80
2023-01-22T06:08:11.834Z,0.80
2023-01-22T06:10:39.840Z,0.80
2023-01-22T06:13:07.790Z,0.80
2023-01-22T06:15:35.792Z,0.80
2023-01-22T06:18:04.982Z,0.80
2023-01-22T06:20:34.512Z,0.80
2023-01-22T06:23:05.300Z,0.80
2023-01-22T06:25:33.266Z,0.80
2023-01-22T06:28:01.258Z,0.80
2023-01-22T06:30:29.250Z,0.70
2023-01-22T06:32:57.323Z,0.70
2023-01-22T06:35:26.787Z,0.70
2023-01-22T06:37:58.108Z,0.70
2023-01-22T06:40:31.464Z,0.70
2023-01-22T06:43:10.601Z,0.70
2023-01-22T06:45:39.396Z,0.70
2023-01-22T06:48:07.603Z,0.70
2023-01-22T06:50:35.550Z,0.70
2023-01-22T06:53:05.017Z,0.70
2023-01-22T06:55:32.992Z,0.70
2023-01-22T06:58:03.715Z,0.70
2023-01-22T07:00:31.708Z,0.70
2023-01-22T07:03:03.969Z,0.70
2023-01-22T07:05:34.885Z,0.70
2023-01-22T07:08:03.016Z,0.70
2023-01-22T07:10:32.374Z,0.70
2023-01-22T07:13:01.534Z,0.70
2023-01-22T07:15:29.528Z,0.70
2023-01-22T07:17:57.567Z,0.70
2023-01-22T07:20:25.591Z,0.70
2023-01-22T07:22:53.579Z,0.70
2023-01-22T07:25:24.260Z,0.70
2023-01-22T07:27:56.231Z,0.70
2023-01-22T07:30:24.228Z,0.70
2023-01-22T07:32:52.375Z,0.70
2023-01-22T07:35:20.652Z,0.70
2023-01-22T07:37:52.166Z,0.70
2023-01-22T07:40:24.197Z,0.70
2023-01-22T07:42:54.061Z,0.70
2023-01-22T07:45:24.462Z,0.70
2023-01-22T07:47:54.443Z,0.70
2023-01-22T07:50:27.235Z,0.70
2023-01-22T07:52:55.208Z,0.70
2023-01-22T07:55:23.448Z,0.70
2023-01-22T07:58:01.400Z,0.70
2023-01-22T08:00:29.583Z,0.70
2023-01-22T08:02:57.710Z,0.70
2023-01-22T08:05:25.904Z,0.70
2023-01-22T08:07:53.872Z,0.70
2023-01-22T08:10:22.179Z,0.70
2023-01-22T08:12:50.137Z,0.70
2023-01-22T08:15:19.633Z,0.70
2023-01-22T08:17:49.112Z,0.80
2023-01-22T08:20:17.529Z,0.80
2023-01-22T08:22:45.670Z,0.80
2023-01-22T08:25:13.694Z,0.80
2023-01-22T08:27:41.774Z,0.80
2023-01-22T08:30:11.245Z,0.80
2023-01-22T08:32:41.325Z,0.80
2023-01-22T08:35:10.006Z,0.80
2023-01-22T08:37:38.102Z,0.80
2023-01-22T08:40:07.116Z,0.80
2023-01-22T08:42:35.084Z,0.80
2023-01-22T08:45:03.045Z,0.80
2023-01-22T08:47:31.097Z,0.80
2023-01-22T08:50:02.040Z,0.80
2023-01-22T08:52:30.043Z,0.80
2023-01-22T08:54:58.024Z,0.80
2023-01-22T08:57:26.133Z,0.80
2023-01-22T09:00:01.069Z,0.80
2023-01-22T09:02:29.774Z,0.80
2023-01-22T09:04:58.947Z,0.80
2023-01-22T09:07:28.281Z,0.90
2023-01-22T09:09:56.225Z,0.90
2023-01-22T09:12:24.375Z,0.90
2023-01-22T09:14:52.303Z,0.90
2023-01-22T09:17:20.253Z,0.90
2023-01-22T09:19:48.197Z,1.10
2023-01-22T09:22:16.155Z,1.10
2023-01-22T09:24:45.477Z,1.10
2023-01-22T09:27:13.675Z,1.20
2023-01-22T09:29:41.717Z,1.20
2023-01-22T09:32:09.679Z,1.20
2023-01-22T09:34:37.639Z,1.20
2023-01-22T09:37:07.861Z,1.20
2023-01-22T09:39:35.985Z,1.20
2023-01-22T09:42:07.355Z,1.20
2023-01-22T09:44:38.672Z,1.20
2023-01-22T09:47:15.842Z,1.20
2023-01-22T09:49:47.477Z,1.30
2023-01-22T09:52:15.472Z,1.20
2023-01-22T09:54:46.252Z,1.30
2023-01-22T09:57:31.263Z,1.30
2023-01-22T09:59:59.884Z,1.30
2023-01-22T10:02:31.357Z,1.30
2023-01-22T10:05:01.640Z,1.30
2023-01-22T10:07:32.073Z,1.30
2023-01-22T10:10:03.132Z,1.30
2023-01-22T10:12:33.699Z,1.30
2023-01-22T10:15:01.981Z,1.40
2023-01-22T10:17:31.703Z,1.40
2023-01-22T10:20:01.111Z,1.40
2023-01-22T10:22:29.112Z,1.40
2023-01-22T10:24:57.743Z,1.40
2023-01-22T10:27:35.072Z,1.40
2023-01-22T10:30:05.479Z,1.50
2023-01-22T10:32:33.602Z,1.50
2023-01-22T10:35:03.302Z,1.40
2023-01-22T10:37:34.003Z,1.50
2023-01-22T10:40:02.020Z,1.50
2023-01-22T10:42:30.558Z,1.60
2023-01-22T10:45:10.699Z,1.60
2023-01-22T10:47:38.669Z,1.60
2023-01-22T10:50:08.152Z,1.60
2023-01-22T10:52:40.350Z,1.60
2023-01-22T10:55:17.082Z,1.60
2023-01-22T10:57:49.668Z,1.60
2023-01-22T11:00:24.162Z,1.60
2023-01-22T11:02:52.253Z,1.70
2023-01-22T11:05:21.594Z,1.70
2023-01-22T11:07:53.406Z,1.70
2023-01-22T11:10:24.338Z,1.70
2023-01-22T11:12:55.294Z,1.70
2023-01-22T11:15:26.956Z,1.70
2023-01-22T11:17:56.160Z,1.80
2023-01-22T11:20:26.156Z,1.90
2023-01-22T11:23:00.579Z,1.90
2023-01-22T11:25:33.133Z,1.90
2023-01-22T11:28:08.527Z,1.90
2023-01-22T11:30:54.576Z,1.90
2023-01-22T11:33:38.402Z,1.90
2023-01-22T11:36:09.870Z,1.90
2023-01-22T11:38:43.806Z,1.90
2023-01-22T11:41:18.999Z,1.90
2023-01-22T11:44:09.191Z,1.90
2023-01-22T11:46:41.268Z,1.90
2023-01-22T11:49:14.412Z,1.90
2023-01-22T11:51:48.044Z,1.90
2023-01-22T11:54:21.109Z,2.00
2023-01-22T11:57:01.244Z,2.00
2023-01-22T11:59:34.798Z,2.00
2023-01-22T12:02:09.885Z,2.00
2023-01-22T12:04:53.370Z,2.00
2023-01-22T12:07:35.326Z,2.10
2023-01-22T12:10:14.658Z,2.10
2023-01-22T12:12:46.103Z,2.10
2023-01-22T12:15:23.542Z,2.10
2023-01-22T12:17:57.406Z,2.10
2023-01-22T12:20:43.098Z,2.20
2023-01-22T12:23:15.429Z,2.20
2023-01-22T12:25:48.656Z,2.10
2023-01-22T12:28:18.855Z,2.20
2023-01-22T12:30:51.449Z,2.20
2023-01-22T12:33:21.403Z,2.20
2023-01-22T12:35:50.285Z,2.20
2023-01-22T12:38:23.676Z,2.20
2023-01-22T12:41:03.052Z,2.30
2023-01-22T12:43:34.891Z,2.30
2023-01-22T12:46:06.977Z,2.30
2023-01-22T12:48:41.107Z,2.30
2023-01-22T12:51:24.389Z,2.40
2023-01-22T12:53:53.716Z,2.40
2023-01-22T12:56:30.033Z,2.40
2023-01-22T12:59:01.928Z,2.40
2023-01-22T13:01:34.096Z,2.50
2023-01-22T13:04:02.708Z,2.50
2023-01-22T13:06:33.083Z,2.50
2023-01-22T13:09:02.466Z,2.50
2023-01-22T13:11:32.362Z,2.50
2023-01-22T13:14:15.124Z,2.50
2023-01-22T13:16:50.946Z,2.50
2023-01-22T13:19:22.943Z,2.50
2023-01-22T13:21:51.387Z,2.60
2023-01-22T13:24:21.081Z,2.50
2023-01-22T13:26:53.495Z,2.60
2023-01-22T13:29:26.731Z,2.60
2023-01-22T13:31:56.040Z,2.60
2023-01-22T13:34:24.120Z,2.60
2023-01-22T13:36:52.449Z,2.60
2023-01-22T13:39:22.830Z,2.60
2023-01-22T13:41:52.040Z,2.60
2023-01-22T13:44:22.952Z,2.60
2023-01-22T13:46:51.607Z,2.60
2023-01-22T13:49:22.328Z,2.70
2023-01-22T13:51:52.402Z,2.70
2023-01-22T13:54:24.808Z,2.70
2023-01-22T13:56:52.824Z,2.70
2023-01-22T13:59:22.054Z,2.70
2023-01-22T14:01:51.701Z,2.70
2023-01-22T14:04:27.302Z,2.70
2023-01-22T14:06:55.410Z,2.70
2023-01-22T14:09:28.091Z,2.70
2023-01-22T14:11:57.463Z,2.70
2023-01-22T14:14:25.697Z,2.70
2023-01-22T14:16:53.949Z,2.70
2023-01-22T14:19:21.939Z,2.70
2023-01-22T14:21:49.920Z,2.70
2023-01-22T14:24:17.900Z,2.70
2023-01-22T14:26:47.228Z,2.70
2023-01-22T14:29:15.635Z,2.70
2023-01-22T14:31:43.626Z,2.70
2023-01-22T14:34:12.457Z,2.70
2023-01-22T14:36:40.465Z,2.70
2023-01-22T14:39:08.439Z,2.70
2023-01-22T14:41:36.420Z,2.70
2023-01-22T14:44:05.973Z,2.70
2023-01-22T14:46:34.018Z,2.70
2023-01-22T14:49:02.146Z,2.60
2023-01-22T14:51:32.889Z,2.70
2023-01-22T14:54:00.878Z,2.70
2023-01-22T14:56:28.834Z,2.70
2023-01-22T14:58:56.811Z,2.80
2023-01-22T15:01:26.174Z,2.70
2023-01-22T15:03:54.257Z,2.70
2023-01-22T15:06:22.313Z,2.70
2023-01-22T15:08:52.027Z,2.70
2023-01-22T15:11:20.045Z,2.70
2023-01-22T15:13:49.245Z,2.80
2023-01-22T15:16:17.307Z,2.90
2023-01-22T15:18:46.832Z,2.90
2023-01-22T15:21:14.837Z,2.90
2023-01-22T15:23:42.892Z,2.90
2023-01-22T15:26:23.196Z,3.00
2023-01-22T15:28:51.509Z,2.90
2023-01-22T15:31:21.483Z,2.90
2023-01-22T15:33:51.411Z,2.90
2023-01-22T15:36:19.524Z,2.90
2023-01-22T15:38:48.927Z,2.90
2023-01-22T15:41:21.089Z,2.90
2023-01-22T15:43:50.911Z,2.90
2023-01-22T15:46:19.170Z,2.90
2023-01-22T15:48:47.250Z,2.90
2023-01-22T15:51:16.863Z,2.90
2023-01-22T15:53:49.046Z,2.90
2023-01-22T15:56:17.071Z,2.90
2023-01-22T15:58:45.076Z,2.90
2023-01-22T16:01:13.088Z,2.90
2023-01-22T16:03:41.138Z,2.80
2023-01-22T16:06:09.796Z,2.90
2023-01-22T16:08:39.154Z,2.90
2023-01-22T16:11:07.180Z,2.90
2023-01-22T16:13:35.248Z,2.90
2023-01-22T16:16:04.691Z,2.80
2023-01-22T16:18:32.941Z,2.80
2023-01-22T16:21:01.632Z,2.80
2023-01-22T16:23:30.677Z,2.80
2023-01-22T16:26:01.111Z,2.80
2023-01-22T16:28:29.233Z,2.80
2023-01-22T16:30:57.336Z,2.80
2023-01-22T16:33:28.569Z,2.80
2023-01-22T16:36:00.049Z,2.80
2023-01-22T16:38:28.142Z,2.80
2023-01-22T16:40:59.074Z,2.80
2023-01-22T16:43:28.453Z,2.80
2023-01-22T16:45:56.456Z,2.80
2023-01-22T16:48:24.458Z,2.70
2023-01-22T16:50:52.504Z,2.70
2023-01-22T16:53:20.558Z,2.70
2023-01-22T16:55:48.554Z,2.70
2023-01-22T16:58:16.552Z,2.70
2023-01-22T17:00:47.389Z,2.80
2023-01-22T17:03:15.390Z,2.80
2023-01-22T17:05:43.624Z,2.70
2023-01-22T17:08:11.612Z,2.70
2023-01-22T17:10:39.581Z,2.70
2023-01-22T17:13:07.577Z,2.70
2023-01-22T17:15:35.706Z,2.70
2023-01-22T17:18:05.391Z,2.70
2023-01-22T17:20:33.571Z,2.70
2023-01-22T17:23:01.819Z,2.70
2023-01-22T17:25:29.927Z,2.70
2023-01-22T17:27:57.944Z,2.70
2023-01-22T17:30:26.013Z,2.70
2023-01-22T17:32:53.976Z,2.70
2023-01-22T17:35:23.501Z,2.80
2023-01-22T17:37:51.478Z,2.70
2023-01-22T17:40:19.563Z,2.70
2023-01-22T17:42:47.564Z,2.80
2023-01-22T17:45:15.674Z,2.80
2023-01-22T17:47:44.111Z,2.80
2023-01-22T17:50:12.876Z,2.70
2023-01-22T17:52:42.228Z,2.70
2023-01-22T17:55:10.793Z,2.70
2023-01-22T17:57:40.768Z,2.70
2023-01-22T18:00:10.587Z,2.70
2023-01-22T18:02:38.592Z,2.70
2023-01-22T18:05:09.341Z,2.70
2023-01-22T18:07:37.714Z,2.70
2023-01-22T18:10:07.361Z,2.70
2023-01-22T18:12:35.345Z,2.70
2023-01-22T18:15:03.924Z,2.70
2023-01-22T18:17:31.957Z,2.70
2023-01-22T18:19:59.975Z,2.70
2023-01-22T18:22:28.249Z,2.70
2023-01-22T18:24:56.617Z,2.70
2023-01-22T18:27:26.036Z,2.70
2023-01-22T18:29:54.054Z,2.70
2023-01-22T18:32:22.531Z,2.70
2023-01-22T18:34:50.524Z,2.70
2023-01-22T18:37:18.520Z,2.70
2023-01-22T18:39:46.531Z,2.70
2023-01-22T18:42:14.567Z,2.70
2023-01-22T18:44:44.084Z,2.70
2023-01-22T18:47:12.325Z,2.80
2023-01-22T18:49:40.279Z,2.70
2023-01-22T18:52:08.317Z,2.80
2023-01-22T18:54:36.371Z,2.80
2023-01-22T18:57:04.393Z,2.80
2023-01-22T18:59:32.355Z,2.80
2023-01-22T19:02:01.821Z,2.80
2023-01-22T19:04:30.308Z,2.80
2023-01-22T19:06:58.304Z,2.80
2023-01-22T19:09:27.928Z,2.80
2023-01-22T19:11:56.035Z,2.80
2023-01-22T19:14:24.045Z,2.80
2023-01-22T19:16:53.227Z,2.80
2023-01-22T19:19:23.149Z,2.80
2023-01-22T19:21:52.461Z,2.90
2023-01-22T19:24:22.340Z,2.90
2023-01-22T19:26:51.601Z,2.90
2023-01-22T19:29:19.681Z,2.90
2023-01-22T19:31:50.632Z,2.90
2023-01-22T19:34:23.571Z,2.90
2023-01-22T19:36:54.241Z,2.90
2023-01-22T19:39:22.524Z,2.90
2023-01-22T19:41:50.531Z,2.90
2023-01-22T19:44:18.603Z,2.80
2023-01-22T19:46:46.659Z,2.90
2023-01-22T19:49:14.875Z,2.90
2023-01-22T19:51:43.113Z,2.90
2023-01-22T19:54:12.553Z,2.80
2023-01-22T19:56:42.335Z,2.80
2023-01-22T19:59:12.121Z,2.80
2023-01-22T20:01:40.195Z,2.80
2023-01-22T20:04:11.934Z,2.80
2023-01-22T20:06:40.485Z,2.80
2023-01-22T20:09:08.492Z,2.90
2023-01-22T20:11:39.029Z,2.80
2023-01-22T20:14:07.001Z,2.80
2023-01-22T20:16:35.211Z,2.80
2023-01-22T20:19:03.241Z,2.90
2023-01-22T20:21:31.380Z,2.90
2023-01-22T20:23:59.601Z,2.90
2023-01-22T20:26:27.539Z,2.90
2023-01-22T20:28:57.212Z,2.90
2023-01-22T20:31:25.389Z,2.90
2023-01-22T20:33:54.771Z,2.90
2023-01-22T20:36:23.229Z,2.90
2023-01-22T20:38:52.906Z,2.90
2023-01-22T20:41:21.420Z,3.00
2023-01-22T20:43:49.500Z,3.00
2023-01-22T20:46:20.981Z,2.90
2023-01-22T20:48:49.479Z,2.90
2023-01-22T20:51:18.139Z,3.00
2023-01-22T20:53:46.568Z,3.00
2023-01-22T20:56:16.447Z,3.00
2023-01-22T20:58:44.544Z,3.00
2023-01-22T21:01:14.714Z,3.00
2023-01-22T21:03:44.327Z,3.00
2023-01-22T21:06:16.311Z,3.00
2023-01-22T21:08:44.995Z,3.00
2023-01-22T21:11:14.057Z,3.00
2023-01-22T21:13:42.073Z,3.00
2023-01-22T21:16:11.428Z,3.00
2023-01-22T21:18:41.405Z,3.00
2023-01-22T21:21:11.095Z,2.90
2023-01-22T21:23:39.675Z,3.00
2023-01-22T21:26:08.424Z,2.90
2023-01-22T21:28:36.742Z,2.90
2023-01-22T21:31:08.601Z,2.90
2023-01-22T21:33:36.692Z,3.00
2023-01-22T21:36:05.421Z,2.90
2023-01-22T21:38:35.023Z,2.90
2023-01-22T21:41:06.673Z,2.90
2023-01-22T21:43:52.437Z,2.90
2023-01-22T21:46:25.077Z,3.00
2023-01-22T21:48:53.878Z,3.00
2023-01-22T21:51:21.902Z,3.00
2023-01-22T21:53:52.930Z,3.00
2023-01-22T21:56:20.903Z,3.00
2023-01-22T21:58:48.969Z,3.00
2023-01-22T22:01:18.305Z,2.90
2023-01-22T22:03:46.345Z,3.00
2023-01-22T22:06:14.673Z,3.00
2023-01-22T22:08:43.474Z,2.90
2023-01-22T22:11:13.653Z,3.00
2023-01-22T22:13:42.092Z,3.00
2023-01-22T22:16:11.277Z,3.00
2023-01-22T22:18:39.363Z,3.00
2023-01-22T22:21:08.165Z,3.00
2023-01-22T22:23:36.729Z,3.00
2023-01-22T22:26:05.204Z,3.00
2023-01-22T22:28:35.170Z,3.00
2023-01-22T22:31:04.268Z,3.00
2023-01-22T22:33:32.275Z,3.00
2023-01-22T22:36:01.188Z,2.90
2023-01-22T22:38:29.241Z,2.90
2023-01-22T22:41:01.160Z,2.90
2023-01-22T22:43:32.391Z,2.90
2023-01-22T22:46:06.595Z,2.90
2023-01-22T22:48:34.941Z,2.90
2023-01-22T22:51:10.069Z,3.00
2023-01-22T22:53:38.072Z,3.00
2023-01-22T22:56:06.417Z,3.00
2023-01-22T22:58:34.707Z,3.00
2023-01-22T23:01:07.799Z,3.00
2023-01-22T23:03:37.106Z,3.00
2023-01-22T23:06:08.205Z,2.90
2023-01-22T23:08:38.880Z,3.00
2023-01-22T23:11:07.351Z,2.90
2023-01-22T23:13:35.407Z,2.90
2023-01-22T23:16:03.997Z,2.90
2023-01-22T23:18:33.608Z,2.90
2023-01-22T23:21:04.313Z,2.90
2023-01-22T23:23:32.436Z,3.00
2023-01-22T23:26:00.480Z,3.00
2023-01-22T23:28:28.448Z,3.00
2023-01-22T23:30:56.680Z,3.00
2023-01-22T23:33:34.715Z,3.00
2023-01-22T23:36:03.192Z,3.00
2023-01-22T23:38:31.159Z,3.00
2023-01-22T23:40:59.484Z,3.00
2023-01-22T23:43:29.077Z,3.00
2023-01-22T23:45:57.096Z,3.00
2023-01-22T23:48:25.101Z,3.00
2023-01-22T23:50:54.871Z,3.00
2023-01-22T23:53:23.379Z,3.00
2023-01-22T23:55:51.341Z,3.00
2023-01-22T23:58:20.833Z,3.00
